createdAt,value
2022-10-17T00:00:45.351Z,18.27
2022-10-17T00:03:02.335Z,15.65
2022-10-17T00:05:20.233Z,18.40
2022-10-17T00:07:37.407Z,13.63
2022-10-17T00:09:54.327Z,12.73
2022-10-17T00:12:11.213Z,13.07
2022-10-17T00:14:29.160Z,10.38
2022-10-17T00:16:46.330Z,10.20
2022-10-17T00:19:03.738Z,7.13
2022-10-17T00:21:20.580Z,8.05
2022-10-17T00:23:37.468Z,11.43
2022-10-17T00:25:54.556Z,12.27
2022-10-17T00:28:11.521Z,10.48
2022-10-17T00:30:28.551Z,13.02
2022-10-17T00:32:45.447Z,6.60
2022-10-17T00:35:02.342Z,12.77
2022-10-17T00:37:19.292Z,12.02
2022-10-17T00:39:36.175Z,5.78
2022-10-17T00:41:53.164Z,5.95
2022-10-17T00:44:10.088Z,10.43
2022-10-17T00:46:26.943Z,9.85
2022-10-17T00:48:43.951Z,13.88
2022-10-17T00:51:00.867Z,9.85
2022-10-17T00:53:21.007Z,10.65
2022-10-17T00:55:37.860Z,7.03
2022-10-17T00:57:54.829Z,12.43
2022-10-17T01:00:11.707Z,9.02
2022-10-17T01:02:28.907Z,4.63
2022-10-17T01:04:45.964Z,6.32
2022-10-17T01:07:03.063Z,6.80
2022-10-17T01:09:20.012Z,9.80
2022-10-17T01:11:36.937Z,12.57
2022-10-17T01:13:53.846Z,12.02
2022-10-17T01:16:10.824Z,5.47
2022-10-17T01:18:27.676Z,15.35
2022-10-17T01:20:44.573Z,6.55
2022-10-17T01:23:01.493Z,15.90
2022-10-17T01:25:18.342Z,5.78
2022-10-17T01:27:35.316Z,6.10
2022-10-17T01:29:52.156Z,4.50
2022-10-17T01:32:08.975Z,7.22
2022-10-17T01:34:25.827Z,7.10
2022-10-17T01:36:42.677Z,18.48
2022-10-17T01:38:59.611Z,6.25
2022-10-17T01:41:16.431Z,8.25
2022-10-17T01:43:33.294Z,14.80
2022-10-17T01:45:50.151Z,7.00
2022-10-17T01:48:07.020Z,8.10
2022-10-17T01:50:23.912Z,5.03
2022-10-17T01:52:40.726Z,8.70
2022-10-17T01:54:57.646Z,6.97
2022-10-17T01:57:14.561Z,7.35
2022-10-17T01:59:31.419Z,4.63
2022-10-17T02:01:48.327Z,6.90
2022-10-17T02:04:05.391Z,15.77
2022-10-17T02:06:22.351Z,3.85
2022-10-17T02:08:39.220Z,3.80
2022-10-17T02:10:56.094Z,3.85
2022-10-17T02:13:13.103Z,3.40
2022-10-17T02:15:30.097Z,3.20
2022-10-17T02:17:46.926Z,11.93
2022-10-17T02:20:03.748Z,7.28
2022-10-17T02:22:20.672Z,4.20
2022-10-17T02:24:37.553Z,8.65
2022-10-17T02:26:54.429Z,3.90
2022-10-17T02:29:11.313Z,9.35
2022-10-17T02:31:28.194Z,3.53
2022-10-17T02:33:45.121Z,11.88
2022-10-17T02:36:02.021Z,7.90
2022-10-17T02:38:18.902Z,8.38
2022-10-17T02:40:35.872Z,8.45
2022-10-17T02:42:52.790Z,11.18
2022-10-17T02:45:09.699Z,12.98
2022-10-17T02:47:26.577Z,6.28
2022-10-17T02:49:43.527Z,6.70
2022-10-17T02:52:00.425Z,5.25
2022-10-17T02:54:17.364Z,8.43
2022-10-17T02:56:34.365Z,4.72
2022-10-17T02:58:51.225Z,6.78
2022-10-17T03:01:08.130Z,9.55
2022-10-17T03:03:25.077Z,6.10
2022-10-17T03:05:44.833Z,3.33
2022-10-17T03:08:01.721Z,6.25
2022-10-17T03:10:18.637Z,3.35
2022-10-17T03:12:35.546Z,5.20
2022-10-17T03:14:52.429Z,9.02
2022-10-17T03:17:09.302Z,7.82
2022-10-17T03:19:26.326Z,5.38
2022-10-17T03:21:43.172Z,5.60
2022-10-17T03:24:00.113Z,14.23
2022-10-17T03:26:16.957Z,8.60
2022-10-17T03:28:33.876Z,4.95
2022-10-17T03:30:50.788Z,6.35
2022-10-17T03:33:07.743Z,4.53
2022-10-17T03:35:24.859Z,5.97
2022-10-17T03:37:41.759Z,9.32
2022-10-17T03:39:58.616Z,6.88
2022-10-17T03:42:15.467Z,4.97
2022-10-17T03:44:32.430Z,4.43
2022-10-17T03:46:49.316Z,5.70
2022-10-17T03:49:06.181Z,4.75
2022-10-17T03:51:23.094Z,7.18
2022-10-17T03:53:40.198Z,4.07
2022-10-17T03:55:57.037Z,3.13
2022-10-17T03:58:13.921Z,5.43
2022-10-17T04:00:30.827Z,3.45
2022-10-17T04:02:47.662Z,4.05
2022-10-17T04:05:04.516Z,5.22
2022-10-17T04:07:21.414Z,4.68
2022-10-17T04:09:38.285Z,7.97
2022-10-17T04:11:55.173Z,7.68
2022-10-17T04:14:12.061Z,10.38
2022-10-17T04:16:29.046Z,7.47
2022-10-17T04:18:45.878Z,3.83
2022-10-17T04:21:02.874Z,7.25
2022-10-17T04:23:19.743Z,7.68
2022-10-17T04:25:36.827Z,6.82
2022-10-17T04:27:53.708Z,5.38
2022-10-17T04:30:10.591Z,3.60
2022-10-17T04:32:27.634Z,5.68
2022-10-17T04:34:44.716Z,8.73
2022-10-17T04:37:01.679Z,4.95
2022-10-17T04:39:18.535Z,5.93
2022-10-17T04:41:35.381Z,6.30
2022-10-17T04:43:52.494Z,7.05
2022-10-17T04:46:09.435Z,4.95
2022-10-17T04:48:26.275Z,8.38
2022-10-17T04:50:43.113Z,6.32
2022-10-17T04:53:00.108Z,7.03
2022-10-17T04:55:17.069Z,5.18
2022-10-17T04:57:34.157Z,10.05
2022-10-17T04:59:51.018Z,9.57
2022-10-17T05:02:07.855Z,9.55
2022-10-17T05:04:24.975Z,10.88
2022-10-17T05:06:41.915Z,3.58
2022-10-17T05:08:58.802Z,21.33
2022-10-17T05:11:15.812Z,3.83
2022-10-17T05:13:32.687Z,9.93
2022-10-17T05:15:49.552Z,10.45
2022-10-17T05:18:06.422Z,17.55
2022-10-17T05:20:23.273Z,10.68
2022-10-17T05:22:42.037Z,19.88
2022-10-17T05:24:59.417Z,9.77
2022-10-17T05:27:16.293Z,5.05
2022-10-17T05:29:33.164Z,7.47
2022-10-17T05:31:49.997Z,16.02
2022-10-17T05:34:09.070Z,27.27
2022-10-17T05:36:28.456Z,5.45
2022-10-17T05:38:45.416Z,8.85
2022-10-17T05:41:02.314Z,7.53
2022-10-17T05:43:19.170Z,16.58
2022-10-17T05:45:36.046Z,11.73
2022-10-17T05:47:53.008Z,9.65
2022-10-17T05:50:09.986Z,29.98
2022-10-17T05:52:26.951Z,10.10
2022-10-17T05:54:44.028Z,13.85
2022-10-17T05:57:01.173Z,11.75
2022-10-17T05:59:18.133Z,6.65
2022-10-17T06:01:35.171Z,11.85
2022-10-17T06:03:52.116Z,17.02
2022-10-17T06:06:09.142Z,14.35
2022-10-17T06:08:26.107Z,15.68
2022-10-17T06:10:43.003Z,6.25
2022-10-17T06:12:59.881Z,5.22
2022-10-17T06:15:16.751Z,10.85
2022-10-17T06:17:33.608Z,9.90
2022-10-17T06:19:50.486Z,13.13
2022-10-17T06:22:07.475Z,8.45
2022-10-17T06:24:24.325Z,15.70
2022-10-17T06:26:41.164Z,22.00
2022-10-17T06:28:58.072Z,7.80
2022-10-17T06:31:14.914Z,11.10
2022-10-17T06:33:31.738Z,4.15
2022-10-17T06:35:48.592Z,19.90
2022-10-17T06:38:05.395Z,14.77
2022-10-17T06:40:22.255Z,8.88
2022-10-17T06:42:39.129Z,9.25
2022-10-17T06:44:55.981Z,8.90
2022-10-17T06:47:14.338Z,7.65
2022-10-17T06:49:33.460Z,16.90
2022-10-17T06:51:50.506Z,10.02
2022-10-17T06:54:07.338Z,17.40
2022-10-17T06:56:24.326Z,11.02
2022-10-17T06:58:41.173Z,7.20
2022-10-17T07:01:00.797Z,5.28
2022-10-17T07:03:18.098Z,9.38
2022-10-17T07:05:34.929Z,8.60
2022-10-17T07:07:52.043Z,13.63
2022-10-17T07:10:09.004Z,5.10
2022-10-17T07:12:25.855Z,5.15
2022-10-17T07:14:42.790Z,6.55
2022-10-17T07:16:59.732Z,8.27
2022-10-17T07:19:16.603Z,11.18
2022-10-17T07:21:36.563Z,9.60
2022-10-17T07:23:56.001Z,5.13
2022-10-17T07:26:12.837Z,5.70
2022-10-17T07:28:29.729Z,5.68
2022-10-17T07:30:50.620Z,11.57
2022-10-17T07:33:10.503Z,8.98
2022-10-17T07:35:27.351Z,7.07
2022-10-17T07:37:44.168Z,8.00
2022-10-17T07:40:01.029Z,5.63
2022-10-17T07:42:17.842Z,8.15
2022-10-17T07:44:34.706Z,6.85
2022-10-17T07:46:51.564Z,3.90
2022-10-17T07:49:08.394Z,5.55
2022-10-17T07:51:25.251Z,4.05
2022-10-17T07:53:43.924Z,3.55
2022-10-17T07:56:03.329Z,4.82
2022-10-17T07:58:20.194Z,6.15
2022-10-17T08:00:37.426Z,6.10
2022-10-17T08:02:54.364Z,4.32
2022-10-17T08:05:11.425Z,4.20
2022-10-17T08:07:29.439Z,5.82
2022-10-17T08:09:46.434Z,5.20
2022-10-17T08:12:03.289Z,4.57
2022-10-17T08:14:20.147Z,3.83
2022-10-17T08:16:37.003Z,3.22
2022-10-17T08:18:53.869Z,3.67
2022-10-17T08:21:10.703Z,4.03
2022-10-17T08:23:27.542Z,3.80
2022-10-17T08:25:44.365Z,5.53
2022-10-17T08:28:01.279Z,3.47
2022-10-17T08:30:18.281Z,5.10
2022-10-17T08:32:35.268Z,5.28
2022-10-17T08:34:52.182Z,9.85
2022-10-17T08:39:25.929Z,5.90
2022-10-17T08:41:42.880Z,6.47
2022-10-17T08:43:59.736Z,4.28
2022-10-17T08:46:16.568Z,3.05
2022-10-17T08:48:33.450Z,6.85
2022-10-17T08:50:50.309Z,3.97
2022-10-17T08:53:07.176Z,6.43
2022-10-17T08:55:24.000Z,5.90
2022-10-17T08:57:40.873Z,5.93
2022-10-17T08:59:57.694Z,4.63
2022-10-17T09:02:14.908Z,7.72
2022-10-17T09:06:53.553Z,7.00
2022-10-17T09:09:10.356Z,13.55
2022-10-17T09:11:27.237Z,9.43
2022-10-17T09:13:44.094Z,8.52
2022-10-17T09:16:00.909Z,7.57
2022-10-17T09:18:21.118Z,6.40
2022-10-17T09:20:39.068Z,10.90
2022-10-17T09:25:14.113Z,9.25
2022-10-17T09:27:31.443Z,12.52
2022-10-17T09:29:48.555Z,10.60
2022-10-17T09:32:05.371Z,6.88
2022-10-17T09:34:25.240Z,11.75
2022-10-17T09:36:43.451Z,7.70
2022-10-17T09:39:00.333Z,14.80
2022-10-17T09:41:43.006Z,8.38
2022-10-17T09:43:53.916Z,8.30
2022-10-17T09:46:10.868Z,8.82
2022-10-17T09:48:27.699Z,8.02
2022-10-17T09:50:44.566Z,8.82
2022-10-17T09:53:01.381Z,10.73
2022-10-17T09:55:18.284Z,8.43
2022-10-17T09:57:35.167Z,8.00
2022-10-17T09:59:52.078Z,8.45
2022-10-17T10:02:09.106Z,11.50
2022-10-17T10:04:30.234Z,7.30
2022-10-17T10:06:50.532Z,7.35
2022-10-17T10:09:07.373Z,7.68
2022-10-17T10:11:24.167Z,5.63
2022-10-17T10:13:41.039Z,5.43
2022-10-17T10:15:57.868Z,6.53
2022-10-17T10:18:14.681Z,8.68
2022-10-17T10:20:31.552Z,8.43
2022-10-17T10:22:48.433Z,6.88
2022-10-17T10:25:05.318Z,6.07
2022-10-17T10:27:22.205Z,8.57
2022-10-17T10:29:39.146Z,6.55
2022-10-17T10:31:56.003Z,11.63
2022-10-17T10:34:12.847Z,8.77
2022-10-17T10:36:29.745Z,5.05
2022-10-17T10:38:46.570Z,6.85
2022-10-17T10:41:03.422Z,8.15
2022-10-17T10:43:20.303Z,7.30
2022-10-17T10:45:52.568Z,5.10
2022-10-17T10:48:09.481Z,6.63
2022-10-17T10:50:26.302Z,8.85
2022-10-17T10:52:43.178Z,6.45
2022-10-17T10:54:59.995Z,6.97
2022-10-17T10:57:16.903Z,4.65
2022-10-17T10:59:33.787Z,7.60
2022-10-17T11:01:50.625Z,7.13
2022-10-17T11:04:07.484Z,5.50
2022-10-17T11:06:24.347Z,10.93
2022-10-17T11:08:41.168Z,5.78
2022-10-17T11:10:58.021Z,13.02
2022-10-17T11:13:14.869Z,11.05
2022-10-17T11:15:31.773Z,10.30
2022-10-17T11:17:48.609Z,5.75
2022-10-17T11:20:05.469Z,8.07
2022-10-17T11:22:24.064Z,9.05
2022-10-17T11:24:43.594Z,7.85
2022-10-17T11:27:00.417Z,8.10
2022-10-17T11:29:17.263Z,6.10
2022-10-17T11:31:34.263Z,11.07
2022-10-17T11:33:51.165Z,6.47
2022-10-17T11:36:08.015Z,9.13
2022-10-17T11:38:24.885Z,7.78
2022-10-17T11:40:41.816Z,11.48
2022-10-17T11:42:58.636Z,4.85
2022-10-17T11:45:15.497Z,7.68
2022-10-17T11:47:32.316Z,9.13
2022-10-17T11:49:51.076Z,5.65
2022-10-17T11:52:08.518Z,8.68
2022-10-17T11:54:25.337Z,11.35
2022-10-17T11:56:42.999Z,8.32
2022-10-17T11:58:59.986Z,7.47
2022-10-17T12:01:16.912Z,10.05
2022-10-17T12:03:33.787Z,7.30
2022-10-17T12:05:50.603Z,8.98
2022-10-17T12:08:07.446Z,7.47
2022-10-17T12:10:24.334Z,10.80
2022-10-17T12:12:41.190Z,6.43
2022-10-17T12:14:58.033Z,9.65
2022-10-17T12:17:15.018Z,6.22
2022-10-17T12:19:31.922Z,9.90
2022-10-17T12:21:48.808Z,6.15
2022-10-17T12:24:05.650Z,7.13
2022-10-17T12:26:22.514Z,8.27
2022-10-17T12:28:39.847Z,9.73
2022-10-17T12:30:57.122Z,7.00
2022-10-17T12:35:31.177Z,8.30
2022-10-17T12:37:48.037Z,8.38
2022-10-17T12:40:04.850Z,7.07
2022-10-17T12:42:21.659Z,9.77
2022-10-17T12:44:38.516Z,7.57
2022-10-17T12:46:55.396Z,9.10
2022-10-17T12:49:12.314Z,16.25
2022-10-17T12:51:37.818Z,5.40
2022-10-17T12:53:54.960Z,7.43
2022-10-17T12:56:11.783Z,7.68
2022-10-17T12:58:28.753Z,5.72
2022-10-17T13:00:59.510Z,6.40
2022-10-17T13:03:22.429Z,11.15
2022-10-17T13:05:39.243Z,8.80
2022-10-17T13:07:56.050Z,7.65
2022-10-17T13:10:14.876Z,10.63
2022-10-17T13:12:32.390Z,8.80
2022-10-17T13:14:49.334Z,7.10
2022-10-17T13:17:06.247Z,11.80
2022-10-17T13:19:23.207Z,6.30
2022-10-17T13:21:40.157Z,13.57
2022-10-17T13:23:57.160Z,7.10
2022-10-17T13:26:14.026Z,7.43
2022-10-17T13:28:30.870Z,9.98
2022-10-17T13:30:49.590Z,10.68
2022-10-17T13:33:06.778Z,8.35
2022-10-17T13:35:27.847Z,7.38
2022-10-17T13:37:59.147Z,12.98
2022-10-17T13:40:40.409Z,8.18
2022-10-17T13:42:53.079Z,11.93
2022-10-17T13:45:09.882Z,10.25
2022-10-17T13:47:26.714Z,9.55
2022-10-17T13:49:43.599Z,8.70
2022-10-17T13:52:00.418Z,13.63
2022-10-17T13:54:17.345Z,9.48
2022-10-17T13:56:34.161Z,9.52
2022-10-17T13:58:51.003Z,6.43
2022-10-17T14:01:07.853Z,9.45
2022-10-17T14:03:31.237Z,5.72
2022-10-17T14:05:53.446Z,8.52
2022-10-17T14:08:12.412Z,10.80
2022-10-17T14:10:31.294Z,10.35
2022-10-17T14:12:50.454Z,7.90
2022-10-17T14:15:10.492Z,7.53
2022-10-17T14:17:28.443Z,7.80
2022-10-17T14:19:51.455Z,7.40
2022-10-17T14:22:12.590Z,8.63
2022-10-17T14:24:29.503Z,10.77
2022-10-17T14:26:46.334Z,6.57
2022-10-17T14:29:03.239Z,6.07
2022-10-17T14:31:20.160Z,10.40
2022-10-17T14:33:38.551Z,9.85
2022-10-17T14:35:58.381Z,10.02
2022-10-17T14:38:15.204Z,9.27
2022-10-17T14:40:32.064Z,7.85
2022-10-17T14:42:48.882Z,11.07
2022-10-17T14:45:05.785Z,9.50
2022-10-17T14:47:42.083Z,7.85
2022-10-17T14:49:59.456Z,6.95
2022-10-17T14:52:18.359Z,10.15
2022-10-17T14:54:35.766Z,10.60
2022-10-17T14:56:52.596Z,10.55
2022-10-17T14:59:12.534Z,12.75
2022-10-17T15:01:32.717Z,10.55
2022-10-17T15:03:49.711Z,13.57
2022-10-17T15:06:06.569Z,20.55
2022-10-17T15:08:23.574Z,9.63
2022-10-17T15:10:40.433Z,13.98
2022-10-17T15:12:59.319Z,11.35
2022-10-17T15:15:26.986Z,17.13
2022-10-17T15:20:00.752Z,19.35
2022-10-17T15:22:17.560Z,9.90
2022-10-17T15:24:34.425Z,11.77
2022-10-17T15:26:51.425Z,15.95
2022-10-17T15:29:08.375Z,19.67
2022-10-17T15:31:25.292Z,15.57
2022-10-17T15:33:42.156Z,17.20
2022-10-17T15:38:20.677Z,15.63
2022-10-17T15:40:40.134Z,12.75
2022-10-17T15:43:01.630Z,18.90
2022-10-17T15:45:18.480Z,12.35
2022-10-17T15:47:35.399Z,19.02
2022-10-17T15:49:52.403Z,19.60
2022-10-17T15:52:09.280Z,16.75
2022-10-17T15:54:26.155Z,18.73
2022-10-17T15:56:42.986Z,22.90
2022-10-17T15:58:59.834Z,13.23
2022-10-17T16:01:16.728Z,18.60
2022-10-17T16:03:33.659Z,12.93
2022-10-17T16:05:50.473Z,17.80
2022-10-17T16:08:07.489Z,16.15
2022-10-17T16:10:24.307Z,16.33
2022-10-17T16:12:41.309Z,25.05
2022-10-17T16:14:58.162Z,25.45
2022-10-17T16:17:15.016Z,22.42
2022-10-17T16:19:31.921Z,19.10
2022-10-17T16:21:48.945Z,13.90
2022-10-17T16:24:05.798Z,11.73
2022-10-17T16:26:22.787Z,20.75
2022-10-17T16:28:43.787Z,23.98
2022-10-17T16:31:03.012Z,17.53
2022-10-17T16:33:19.977Z,23.00
2022-10-17T16:35:37.701Z,24.70
2022-10-17T16:37:54.763Z,20.35
2022-10-17T16:40:11.642Z,16.55
2022-10-17T16:42:28.667Z,14.95
2022-10-17T16:44:45.712Z,17.85
2022-10-17T16:47:02.734Z,19.60
2022-10-17T16:49:19.716Z,16.63
2022-10-17T16:51:37.526Z,17.63
2022-10-17T16:53:54.605Z,18.73
2022-10-17T16:56:11.468Z,20.20
2022-10-17T16:58:28.309Z,14.00
2022-10-17T17:00:45.213Z,12.63
2022-10-17T17:03:02.126Z,16.88
2022-10-17T17:05:18.994Z,19.08
2022-10-17T17:07:35.869Z,13.57
2022-10-17T17:09:52.706Z,22.02
2022-10-17T17:12:09.646Z,20.73
2022-10-17T17:14:26.545Z,18.90
2022-10-17T17:16:43.468Z,21.30
2022-10-17T17:19:00.298Z,20.58
2022-10-17T17:21:17.169Z,11.02
2022-10-17T17:23:34.211Z,27.40
2022-10-17T17:25:51.357Z,18.65
2022-10-17T17:28:08.477Z,16.88
2022-10-17T17:30:25.779Z,23.65
2022-10-17T17:32:42.823Z,20.35
2022-10-17T17:34:59.739Z,18.30
2022-10-17T17:37:16.628Z,21.83
2022-10-17T17:39:33.672Z,21.13
2022-10-17T17:41:50.659Z,18.73
2022-10-17T17:44:10.160Z,11.50
2022-10-17T17:46:29.381Z,24.45
2022-10-17T17:48:46.383Z,15.20
2022-10-17T17:51:03.425Z,18.48
2022-10-17T17:53:20.351Z,19.73
2022-10-17T17:55:37.423Z,21.67
2022-10-17T17:57:54.302Z,13.85
2022-10-17T18:00:11.230Z,23.52
2022-10-17T18:02:28.367Z,18.25
2022-10-17T18:04:45.377Z,16.65
2022-10-17T18:07:02.347Z,18.02
2022-10-17T18:09:19.204Z,11.07
2022-10-17T18:11:36.078Z,17.10
2022-10-17T18:13:55.854Z,19.98
2022-10-17T18:16:12.834Z,17.00
2022-10-17T18:18:29.742Z,22.25
2022-10-17T18:20:46.683Z,17.70
2022-10-17T18:23:04.308Z,19.60
2022-10-17T18:25:21.302Z,17.08
2022-10-17T18:27:38.787Z,14.07
2022-10-17T18:29:55.632Z,27.27
2022-10-17T18:32:12.630Z,17.90
2022-10-17T18:34:29.568Z,16.70
2022-10-17T18:36:46.489Z,16.15
2022-10-17T18:39:03.501Z,21.30
2022-10-17T18:41:20.386Z,18.38
2022-10-17T18:43:37.581Z,17.30
2022-10-17T18:45:54.501Z,19.38
2022-10-17T18:48:11.455Z,17.30
2022-10-17T18:50:28.481Z,16.38
2022-10-17T18:52:45.355Z,21.25
2022-10-17T18:55:02.499Z,15.20
2022-10-17T18:57:21.495Z,17.08
2022-10-17T18:59:40.913Z,19.25
2022-10-17T19:01:58.139Z,20.42
2022-10-17T19:04:15.183Z,17.27
2022-10-17T19:06:32.184Z,19.77
2022-10-17T19:08:49.135Z,14.23
2022-10-17T19:11:06.037Z,18.45
2022-10-17T19:13:23.010Z,22.27
2022-10-17T19:15:39.887Z,18.80
2022-10-17T19:17:57.151Z,18.80
2022-10-17T19:20:14.162Z,14.77
2022-10-17T19:22:31.000Z,14.60
2022-10-17T19:24:47.829Z,21.73
2022-10-17T19:27:04.867Z,22.52
2022-10-17T19:29:21.877Z,24.08
2022-10-17T19:31:38.717Z,18.10
2022-10-17T19:33:55.723Z,17.42
2022-10-17T19:36:12.744Z,16.48
2022-10-17T19:38:29.668Z,15.75
2022-10-17T19:40:46.626Z,26.63
2022-10-17T19:43:03.620Z,19.02
2022-10-17T19:45:20.730Z,14.70
2022-10-17T19:47:37.583Z,13.88
2022-10-17T19:49:54.490Z,17.77
2022-10-17T19:52:11.530Z,22.65
2022-10-17T19:54:28.451Z,23.23
2022-10-17T19:56:45.302Z,22.90
2022-10-17T19:59:02.183Z,17.40
2022-10-17T20:01:19.073Z,16.05
2022-10-17T20:03:36.033Z,20.75
2022-10-17T20:05:52.989Z,19.90
2022-10-17T20:08:09.830Z,17.20
2022-10-17T20:10:26.778Z,22.83
2022-10-17T20:12:43.606Z,17.38
2022-10-17T20:15:00.421Z,20.75
2022-10-17T20:17:17.321Z,20.05
2022-10-17T20:19:34.156Z,18.65
2022-10-17T20:21:51.046Z,23.08
2022-10-17T20:24:07.909Z,27.05
2022-10-17T20:26:37.009Z,20.27
2022-10-17T20:28:54.495Z,19.25
2022-10-17T20:31:11.527Z,18.67
2022-10-17T20:33:31.793Z,20.92
2022-10-17T20:35:48.936Z,20.75
2022-10-17T20:38:05.832Z,16.27
2022-10-17T20:40:34.828Z,20.98
2022-10-17T20:42:52.412Z,21.35
2022-10-17T20:45:09.282Z,25.65
2022-10-17T20:47:43.557Z,20.48
2022-10-17T20:50:02.160Z,21.17
2022-10-17T20:52:19.012Z,15.98
2022-10-17T20:54:36.694Z,20.42
2022-10-17T20:56:53.503Z,13.90
2022-10-17T20:59:10.620Z,19.15
2022-10-17T21:01:27.525Z,22.98
2022-10-17T21:03:46.484Z,26.48
2022-10-17T21:06:04.006Z,19.42
2022-10-17T21:08:20.877Z,17.73
2022-10-17T21:10:38.021Z,22.75
2022-10-17T21:12:54.892Z,17.90
2022-10-17T21:15:11.921Z,20.25
2022-10-17T21:17:29.081Z,16.10
2022-10-17T21:19:46.042Z,16.58
2022-10-17T21:22:03.063Z,19.13
2022-10-17T21:24:20.147Z,22.33
2022-10-17T21:26:37.217Z,16.27
2022-10-17T21:28:55.201Z,19.38
2022-10-17T21:31:13.475Z,17.52
2022-10-17T21:33:30.760Z,22.88
2022-10-17T21:35:47.977Z,23.40
2022-10-17T21:38:04.939Z,18.42
2022-10-17T21:40:21.888Z,16.15
2022-10-17T21:42:38.916Z,15.25
2022-10-17T21:44:55.952Z,17.90
2022-10-17T21:47:13.003Z,16.73
2022-10-17T21:49:30.255Z,23.50
2022-10-17T21:51:48.333Z,14.60
2022-10-17T21:54:05.973Z,19.77
2022-10-17T21:56:23.187Z,18.40
2022-10-17T21:58:44.405Z,16.05
2022-10-17T22:01:01.381Z,18.85
2022-10-17T22:03:19.669Z,28.40
2022-10-17T22:05:36.912Z,21.15
2022-10-17T22:07:53.942Z,18.33
2022-10-17T22:10:10.930Z,28.05
2022-10-17T22:12:28.374Z,21.00
2022-10-17T22:14:46.030Z,33.58
2022-10-17T22:17:03.478Z,24.58
2022-10-17T22:19:20.800Z,28.55
2022-10-17T22:21:37.767Z,22.75
2022-10-17T22:26:25.973Z,17.92
2022-10-17T22:28:43.022Z,15.75
2022-10-17T22:31:00.525Z,17.42
2022-10-17T22:33:17.542Z,17.58
2022-10-17T22:35:34.612Z,22.70
2022-10-17T22:37:51.690Z,20.05
2022-10-17T22:40:08.956Z,21.08
2022-10-17T22:42:26.353Z,21.33
2022-10-17T22:44:43.376Z,20.15
2022-10-17T22:47:01.304Z,23.80
2022-10-17T22:49:19.680Z,23.85
2022-10-17T22:51:37.188Z,21.80
2022-10-17T22:53:55.264Z,29.52
2022-10-17T22:56:12.245Z,18.10
2022-10-17T22:58:29.317Z,22.52
2022-10-17T23:00:46.260Z,18.13
2022-10-17T23:03:04.314Z,16.00
2022-10-17T23:05:25.741Z,23.90
2022-10-17T23:07:43.743Z,30.17
2022-10-17T23:10:00.791Z,26.08
2022-10-17T23:12:18.126Z,13.38
2022-10-17T23:14:35.064Z,19.70
2022-10-17T23:16:52.301Z,24.33
2022-10-17T23:19:10.335Z,18.33
2022-10-17T23:21:32.077Z,17.80
2022-10-17T23:23:49.016Z,14.93
2022-10-17T23:26:07.072Z,17.88
2022-10-17T23:28:24.180Z,15.73
2022-10-17T23:30:41.518Z,21.83
2022-10-17T23:32:58.807Z,18.92
2022-10-17T23:35:17.109Z,20.00
2022-10-17T23:37:34.081Z,21.15
2022-10-17T23:39:51.365Z,18.63
2022-10-17T23:42:08.698Z,12.95
2022-10-17T23:44:25.748Z,20.15
2022-10-17T23:46:44.059Z,21.55
2022-10-17T23:49:01.343Z,18.55
2022-10-17T23:51:18.189Z,17.35
2022-10-17T23:53:35.480Z,15.77
2022-10-17T23:55:52.884Z,20.33
2022-10-17T23:58:09.913Z,18.30
